sensor_id;sensor_type;location;lat;lon;timestamp;P1;durP1;ratioP1;P2;durP2;ratioP2
21754;SDS011;11039;50.028;19.938;2023-07-02T00:00:30;18.48;;;16.58;;
21754;SDS011;11039;50.028;19.938;2023-07-02T00:02:56;19.10;;;15.77;;
21754;SDS011;11039;50.028;19.938;2023-07-02T00:05:22;18.00;;;16.23;;
21754;SDS011;11039;50.028;19.938;2023-07-02T00:07:48;18.70;;;16.73;;
21754;SDS011;11039;50.028;19.938;2023-07-02T00:10:14;17.90;;;16.10;;
21754;SDS011;11039;50.028;19.938;2023-07-02T00:12:40;18.52;;;16.73;;
21754;SDS011;11039;50.028;19.938;2023-07-02T00:15:06;18.42;;;16.63;;
21754;SDS011;11039;50.028;19.938;2023-07-02T00:17:32;17.67;;;15.88;;
21754;SDS011;11039;50.028;19.938;2023-07-02T00:19:58;18.30;;;16.40;;
21754;SDS011;11039;50.028;19.938;2023-07-02T00:22:27;20.13;;;17.52;;
21754;SDS011;11039;50.028;19.938;2023-07-02T00:24:56;18.83;;;16.83;;
21754;SDS011;11039;50.028;19.938;2023-07-02T00:27:22;20.80;;;17.73;;
21754;SDS011;11039;50.028;19.938;2023-07-02T00:29:48;19.60;;;17.33;;
21754;SDS011;11039;50.028;19.938;2023-07-02T00:32:14;19.17;;;17.20;;
21754;SDS011;11039;50.028;19.938;2023-07-02T00:34:40;18.17;;;16.30;;
21754;SDS011;11039;50.028;19.938;2023-07-02T00:37:06;19.83;;;17.00;;
21754;SDS011;11039;50.028;19.938;2023-07-02T00:39:32;18.75;;;16.48;;
21754;SDS011;11039;50.028;19.938;2023-07-02T00:42:01;19.02;;;17.02;;
21754;SDS011;11039;50.028;19.938;2023-07-02T00:44:30;19.05;;;17.25;;
21754;SDS011;11039;50.028;19.938;2023-07-02T00:46:56;18.23;;;16.05;;
21754;SDS011;11039;50.028;19.938;2023-07-02T00:49:23;18.77;;;16.75;;
21754;SDS011;11039;50.028;19.938;2023-07-02T00:51:49;18.27;;;16.27;;
21754;SDS011;11039;50.028;19.938;2023-07-02T00:54:15;18.45;;;16.52;;
21754;SDS011;11039;50.028;19.938;2023-07-02T00:56:41;18.80;;;16.80;;
21754;SDS011;11039;50.028;19.938;2023-07-02T00:59:07;17.85;;;16.02;;
21754;SDS011;11039;50.028;19.938;2023-07-02T01:01:33;19.52;;;17.52;;
21754;SDS011;11039;50.028;19.938;2023-07-02T01:04:04;18.25;;;16.40;;
21754;SDS011;11039;50.028;19.938;2023-07-02T01:06:33;18.33;;;16.27;;
21754;SDS011;11039;50.028;19.938;2023-07-02T01:09:03;18.48;;;16.55;;
21754;SDS011;11039;50.028;19.938;2023-07-02T01:11:31;18.15;;;16.27;;
21754;SDS011;11039;50.028;19.938;2023-07-02T01:14:05;18.75;;;16.75;;
21754;SDS011;11039;50.028;19.938;2023-07-02T01:16:31;18.23;;;16.33;;
21754;SDS011;11039;50.028;19.938;2023-07-02T01:18:58;18.85;;;16.23;;
21754;SDS011;11039;50.028;19.938;2023-07-02T01:23:47;18.45;;;16.42;;
21754;SDS011;11039;50.028;19.938;2023-07-02T01:26:13;19.27;;;17.17;;
21754;SDS011;11039;50.028;19.938;2023-07-02T01:28:41;17.65;;;15.95;;
21754;SDS011;11039;50.028;19.938;2023-07-02T01:31:07;21.27;;;15.75;;
21754;SDS011;11039;50.028;19.938;2023-07-02T01:33:33;18.98;;;16.92;;
21754;SDS011;11039;50.028;19.938;2023-07-02T01:35:59;17.42;;;15.63;;
21754;SDS011;11039;50.028;19.938;2023-07-02T01:38:25;17.38;;;15.57;;
21754;SDS011;11039;50.028;19.938;2023-07-02T01:40:52;17.40;;;15.48;;
21754;SDS011;11039;50.028;19.938;2023-07-02T01:43:18;18.42;;;15.95;;
21754;SDS011;11039;50.028;19.938;2023-07-02T01:45:44;17.73;;;15.80;;
21754;SDS011;11039;50.028;19.938;2023-07-02T01:48:10;18.48;;;15.57;;
21754;SDS011;11039;50.028;19.938;2023-07-02T01:50:36;17.45;;;15.60;;
21754;SDS011;11039;50.028;19.938;2023-07-02T01:53:02;19.02;;;15.57;;
21754;SDS011;11039;50.028;19.938;2023-07-02T01:55:28;18.33;;;15.30;;
21754;SDS011;11039;50.028;19.938;2023-07-02T01:57:54;17.17;;;15.10;;
21754;SDS011;11039;50.028;19.938;2023-07-02T02:00:20;17.30;;;15.50;;
21754;SDS011;11039;50.028;19.938;2023-07-02T02:02:46;18.50;;;16.17;;
21754;SDS011;11039;50.028;19.938;2023-07-02T02:05:12;16.92;;;15.23;;
21754;SDS011;11039;50.028;19.938;2023-07-02T02:07:38;17.38;;;14.98;;
21754;SDS011;11039;50.028;19.938;2023-07-02T02:10:05;17.77;;;15.90;;
21754;SDS011;11039;50.028;19.938;2023-07-02T02:12:33;17.27;;;15.48;;
21754;SDS011;11039;50.028;19.938;2023-07-02T02:15:00;17.45;;;14.82;;
21754;SDS011;11039;50.028;19.938;2023-07-02T02:17:26;17.55;;;15.75;;
21754;SDS011;11039;50.028;19.938;2023-07-02T02:19:52;16.42;;;14.82;;
21754;SDS011;11039;50.028;19.938;2023-07-02T02:22:18;17.55;;;15.38;;
21754;SDS011;11039;50.028;19.938;2023-07-02T02:24:44;16.35;;;14.63;;
21754;SDS011;11039;50.028;19.938;2023-07-02T02:27:10;17.20;;;15.40;;
21754;SDS011;11039;50.028;19.938;2023-07-02T02:29:36;17.63;;;15.68;;
21754;SDS011;11039;50.028;19.938;2023-07-02T02:32:02;17.13;;;15.18;;
21754;SDS011;11039;50.028;19.938;2023-07-02T02:34:28;18.88;;;15.05;;
21754;SDS011;11039;50.028;19.938;2023-07-02T02:39:12;17.23;;;15.52;;
21754;SDS011;11039;50.028;19.938;2023-07-02T02:41:39;18.73;;;15.38;;
21754;SDS011;11039;50.028;19.938;2023-07-02T02:44:05;17.15;;;15.35;;
21754;SDS011;11039;50.028;19.938;2023-07-02T02:46:31;16.98;;;15.25;;
21754;SDS011;11039;50.028;19.938;2023-07-02T02:48:57;16.55;;;14.75;;
21754;SDS011;11039;50.028;19.938;2023-07-02T02:51:23;17.70;;;15.02;;
21754;SDS011;11039;50.028;19.938;2023-07-02T02:53:49;17.42;;;15.55;;
21754;SDS011;11039;50.028;19.938;2023-07-02T02:56:15;18.63;;;15.30;;
21754;SDS011;11039;50.028;19.938;2023-07-02T02:58:41;17.73;;;15.68;;
21754;SDS011;11039;50.028;19.938;2023-07-02T03:01:07;16.73;;;15.02;;
21754;SDS011;11039;50.028;19.938;2023-07-02T03:03:39;16.42;;;14.73;;
21754;SDS011;11039;50.028;19.938;2023-07-02T03:06:09;16.40;;;14.75;;
21754;SDS011;11039;50.028;19.938;2023-07-02T03:08:36;16.90;;;14.18;;
21754;SDS011;11039;50.028;19.938;2023-07-02T03:11:02;17.63;;;14.77;;
21754;SDS011;11039;50.028;19.938;2023-07-02T03:13:28;16.60;;;14.90;;
21754;SDS011;11039;50.028;19.938;2023-07-02T03:15:54;17.15;;;14.60;;
21754;SDS011;11039;50.028;19.938;2023-07-02T03:18:20;17.38;;;14.68;;
21754;SDS011;11039;50.028;19.938;2023-07-02T03:20:46;17.80;;;15.43;;
21754;SDS011;11039;50.028;19.938;2023-07-02T03:23:12;16.55;;;14.82;;
21754;SDS011;11039;50.028;19.938;2023-07-02T03:25:38;16.75;;;15.05;;
21754;SDS011;11039;50.028;19.938;2023-07-02T03:28:04;18.30;;;14.60;;
21754;SDS011;11039;50.028;19.938;2023-07-02T03:30:30;15.52;;;13.80;;
21754;SDS011;11039;50.028;19.938;2023-07-02T03:32:57;16.60;;;14.35;;
21754;SDS011;11039;50.028;19.938;2023-07-02T03:35:23;15.70;;;13.90;;
21754;SDS011;11039;50.028;19.938;2023-07-02T03:37:49;16.00;;;14.40;;
21754;SDS011;11039;50.028;19.938;2023-07-02T03:40:15;18.88;;;15.32;;
21754;SDS011;11039;50.028;19.938;2023-07-02T03:42:41;16.02;;;14.32;;
21754;SDS011;11039;50.028;19.938;2023-07-02T03:45:07;15.73;;;14.00;;
21754;SDS011;11039;50.028;19.938;2023-07-02T03:52:11;16.05;;;14.23;;
21754;SDS011;11039;50.028;19.938;2023-07-02T03:54:37;16.80;;;14.18;;
21754;SDS011;11039;50.028;19.938;2023-07-02T03:57:04;16.63;;;14.88;;
21754;SDS011;11039;50.028;19.938;2023-07-02T03:59:30;16.52;;;14.93;;
21754;SDS011;11039;50.028;19.938;2023-07-02T04:01:56;16.58;;;14.07;;
21754;SDS011;11039;50.028;19.938;2023-07-02T04:04:22;16.77;;;15.05;;
21754;SDS011;11039;50.028;19.938;2023-07-02T04:06:48;16.02;;;14.30;;
21754;SDS011;11039;50.028;19.938;2023-07-02T04:09:14;16.65;;;14.98;;
21754;SDS011;11039;50.028;19.938;2023-07-02T04:11:40;15.55;;;14.02;;
21754;SDS011;11039;50.028;19.938;2023-07-02T04:14:06;16.75;;;15.02;;
21754;SDS011;11039;50.028;19.938;2023-07-02T04:16:32;16.92;;;15.18;;
21754;SDS011;11039;50.028;19.938;2023-07-02T04:18:58;16.73;;;15.02;;
21754;SDS011;11039;50.028;19.938;2023-07-02T04:21:24;15.13;;;13.52;;
21754;SDS011;11039;50.028;19.938;2023-07-02T04:23:50;16.48;;;14.88;;
21754;SDS011;11039;50.028;19.938;2023-07-02T04:28:36;16.35;;;14.18;;
21754;SDS011;11039;50.028;19.938;2023-07-02T04:31:02;16.00;;;14.30;;
21754;SDS011;11039;50.028;19.938;2023-07-02T04:33:28;16.40;;;13.90;;
21754;SDS011;11039;50.028;19.938;2023-07-02T04:36:00;17.33;;;13.52;;
21754;SDS011;11039;50.028;19.938;2023-07-02T04:38:26;16.33;;;14.05;;
21754;SDS011;11039;50.028;19.938;2023-07-02T04:43:11;15.55;;;13.95;;
21754;SDS011;11039;50.028;19.938;2023-07-02T04:45:37;15.05;;;13.45;;
21754;SDS011;11039;50.028;19.938;2023-07-02T04:48:04;15.95;;;14.25;;
21754;SDS011;11039;50.028;19.938;2023-07-02T04:50:30;13.77;;;12.38;;
21754;SDS011;11039;50.028;19.938;2023-07-02T04:52:56;14.40;;;12.82;;
21754;SDS011;11039;50.028;19.938;2023-07-02T04:55:22;14.50;;;12.80;;
21754;SDS011;11039;50.028;19.938;2023-07-02T04:57:48;14.15;;;12.68;;
21754;SDS011;11039;50.028;19.938;2023-07-02T05:00:14;14.68;;;12.98;;
21754;SDS011;11039;50.028;19.938;2023-07-02T05:02:40;16.20;;;13.27;;
21754;SDS011;11039;50.028;19.938;2023-07-02T05:05:07;14.73;;;13.20;;
21754;SDS011;11039;50.028;19.938;2023-07-02T05:07:33;14.73;;;12.50;;
21754;SDS011;11039;50.028;19.938;2023-07-02T05:09:59;14.18;;;12.27;;
21754;SDS011;11039;50.028;19.938;2023-07-02T05:12:25;13.57;;;12.27;;
21754;SDS011;11039;50.028;19.938;2023-07-02T05:14:51;14.05;;;12.38;;
21754;SDS011;11039;50.028;19.938;2023-07-02T05:17:17;12.85;;;11.52;;
21754;SDS011;11039;50.028;19.938;2023-07-02T05:19:43;13.55;;;11.93;;
21754;SDS011;11039;50.028;19.938;2023-07-02T05:22:09;12.80;;;11.50;;
21754;SDS011;11039;50.028;19.938;2023-07-02T05:24:35;12.93;;;11.57;;
21754;SDS011;11039;50.028;19.938;2023-07-02T05:27:02;12.73;;;11.43;;
21754;SDS011;11039;50.028;19.938;2023-07-02T05:29:28;14.13;;;11.20;;
21754;SDS011;11039;50.028;19.938;2023-07-02T05:31:54;12.82;;;11.52;;
21754;SDS011;11039;50.028;19.938;2023-07-02T05:34:20;13.48;;;11.63;;
21754;SDS011;11039;50.028;19.938;2023-07-02T05:36:46;13.95;;;11.45;;
21754;SDS011;11039;50.028;19.938;2023-07-02T05:39:12;13.48;;;11.65;;
21754;SDS011;11039;50.028;19.938;2023-07-02T05:41:39;12.45;;;11.20;;
21754;SDS011;11039;50.028;19.938;2023-07-02T05:44:05;14.93;;;11.25;;
21754;SDS011;11039;50.028;19.938;2023-07-02T05:46:31;11.93;;;10.68;;
21754;SDS011;11039;50.028;19.938;2023-07-02T05:48:57;12.68;;;11.05;;
21754;SDS011;11039;50.028;19.938;2023-07-02T05:51:24;12.63;;;11.18;;
21754;SDS011;11039;50.028;19.938;2023-07-02T05:53:51;12.30;;;10.90;;
21754;SDS011;11039;50.028;19.938;2023-07-02T05:56:17;15.88;;;11.30;;
21754;SDS011;11039;50.028;19.938;2023-07-02T05:58:44;13.52;;;11.43;;
21754;SDS011;11039;50.028;19.938;2023-07-02T06:01:11;11.35;;;10.25;;
21754;SDS011;11039;50.028;19.938;2023-07-02T06:03:37;13.85;;;10.85;;
21754;SDS011;11039;50.028;19.938;2023-07-02T06:06:03;11.52;;;10.32;;
21754;SDS011;11039;50.028;19.938;2023-07-02T06:08:29;12.60;;;10.52;;
21754;SDS011;11039;50.028;19.938;2023-07-02T06:10:55;11.60;;;10.40;;
21754;SDS011;11039;50.028;19.938;2023-07-02T06:13:21;11.43;;;10.20;;
21754;SDS011;11039;50.028;19.938;2023-07-02T06:15:47;12.18;;;10.10;;
21754;SDS011;11039;50.028;19.938;2023-07-02T06:18:13;11.05;;;9.52;;
21754;SDS011;11039;50.028;19.938;2023-07-02T06:20:39;11.73;;;10.35;;
21754;SDS011;11039;50.028;19.938;2023-07-02T06:23:05;12.07;;;10.23;;
21754;SDS011;11039;50.028;19.938;2023-07-02T06:25:31;12.82;;;9.73;;
21754;SDS011;11039;50.028;19.938;2023-07-02T06:27:57;12.60;;;10.75;;
21754;SDS011;11039;50.028;19.938;2023-07-02T06:30:24;10.55;;;9.10;;
21754;SDS011;11039;50.028;19.938;2023-07-02T06:32:50;11.20;;;9.90;;
21754;SDS011;11039;50.028;19.938;2023-07-02T06:35:16;11.32;;;9.82;;
21754;SDS011;11039;50.028;19.938;2023-07-02T06:37:42;10.07;;;9.07;;
21754;SDS011;11039;50.028;19.938;2023-07-02T06:40:09;10.82;;;9.75;;
21754;SDS011;11039;50.028;19.938;2023-07-02T06:42:35;10.93;;;9.82;;
21754;SDS011;11039;50.028;19.938;2023-07-02T06:45:01;10.23;;;9.18;;
21754;SDS011;11039;50.028;19.938;2023-07-02T06:47:27;12.43;;;9.48;;
21754;SDS011;11039;50.028;19.938;2023-07-02T06:49:53;10.40;;;9.30;;
21754;SDS011;11039;50.028;19.938;2023-07-02T06:52:19;11.43;;;9.43;;
21754;SDS011;11039;50.028;19.938;2023-07-02T06:54:45;11.05;;;9.55;;
21754;SDS011;11039;50.028;19.938;2023-07-02T06:57:14;10.43;;;8.98;;
21754;SDS011;11039;50.028;19.938;2023-07-02T06:59:40;10.23;;;9.13;;
21754;SDS011;11039;50.028;19.938;2023-07-02T07:02:07;10.80;;;9.70;;
21754;SDS011;11039;50.028;19.938;2023-07-02T07:04:33;10.13;;;9.13;;
21754;SDS011;11039;50.028;19.938;2023-07-02T07:07:02;10.30;;;9.10;;
21754;SDS011;11039;50.028;19.938;2023-07-02T07:09:29;10.70;;;9.60;;
21754;SDS011;11039;50.028;19.938;2023-07-02T07:11:55;10.25;;;9.07;;
21754;SDS011;11039;50.028;19.938;2023-07-02T07:14:21;10.82;;;9.70;;
21754;SDS011;11039;50.028;19.938;2023-07-02T07:16:47;11.70;;;9.85;;
21754;SDS011;11039;50.028;19.938;2023-07-02T07:19:13;10.30;;;9.15;;
21754;SDS011;11039;50.028;19.938;2023-07-02T07:21:39;10.57;;;9.40;;
21754;SDS011;11039;50.028;19.938;2023-07-02T07:24:05;10.35;;;9.25;;
21754;SDS011;11039;50.028;19.938;2023-07-02T07:26:32;10.20;;;9.20;;
21754;SDS011;11039;50.028;19.938;2023-07-02T07:28:58;10.65;;;8.73;;
21754;SDS011;11039;50.028;19.938;2023-07-02T07:31:24;10.52;;;8.95;;
21754;SDS011;11039;50.028;19.938;2023-07-02T07:33:50;10.15;;;8.73;;
21754;SDS011;11039;50.028;19.938;2023-07-02T07:36:16;10.02;;;8.40;;
21754;SDS011;11039;50.028;19.938;2023-07-02T07:38:45;9.02;;;8.13;;
21754;SDS011;11039;50.028;19.938;2023-07-02T07:41:11;9.90;;;8.60;;
21754;SDS011;11039;50.028;19.938;2023-07-02T07:43:37;9.82;;;8.38;;
21754;SDS011;11039;50.028;19.938;2023-07-02T07:46:03;10.63;;;8.25;;
21754;SDS011;11039;50.028;19.938;2023-07-02T07:48:29;11.25;;;8.18;;
21754;SDS011;11039;50.028;19.938;2023-07-02T07:50:56;9.02;;;8.13;;
21754;SDS011;11039;50.028;19.938;2023-07-02T07:53:22;10.10;;;8.52;;
21754;SDS011;11039;50.028;19.938;2023-07-02T07:58:06;9.75;;;7.65;;
21754;SDS011;11039;50.028;19.938;2023-07-02T08:00:32;10.85;;;7.82;;
21754;SDS011;11039;50.028;19.938;2023-07-02T08:02:58;12.55;;;8.18;;
21754;SDS011;11039;50.028;19.938;2023-07-02T08:05:25;9.23;;;7.95;;
21754;SDS011;11039;50.028;19.938;2023-07-02T08:07:51;9.57;;;7.85;;
21754;SDS011;11039;50.028;19.938;2023-07-02T08:10:18;9.98;;;7.70;;
21754;SDS011;11039;50.028;19.938;2023-07-02T08:12:45;10.38;;;8.13;;
21754;SDS011;11039;50.028;19.938;2023-07-02T08:15:12;9.60;;;7.55;;
21754;SDS011;11039;50.028;19.938;2023-07-02T08:17:38;10.88;;;7.40;;
21754;SDS011;11039;50.028;19.938;2023-07-02T08:20:04;10.07;;;8.52;;
21754;SDS011;11039;50.028;19.938;2023-07-02T08:22:38;10.77;;;8.00;;
21754;SDS011;11039;50.028;19.938;2023-07-02T08:25:04;9.57;;;7.55;;
21754;SDS011;11039;50.028;19.938;2023-07-02T08:27:31;9.00;;;7.90;;
21754;SDS011;11039;50.028;19.938;2023-07-02T08:29:57;12.02;;;7.78;;
21754;SDS011;11039;50.028;19.938;2023-07-02T08:32:23;9.27;;;8.20;;
21754;SDS011;11039;50.028;19.938;2023-07-02T08:34:49;9.63;;;7.35;;
21754;SDS011;11039;50.028;19.938;2023-07-02T08:37:18;10.40;;;8.05;;
21754;SDS011;11039;50.028;19.938;2023-07-02T08:39:44;12.10;;;8.23;;
21754;SDS011;11039;50.028;19.938;2023-07-02T08:42:10;9.75;;;7.50;;
21754;SDS011;11039;50.028;19.938;2023-07-02T08:44:36;11.60;;;8.05;;
21754;SDS011;11039;50.028;19.938;2023-07-02T08:47:03;9.75;;;8.07;;
21754;SDS011;11039;50.028;19.938;2023-07-02T08:49:29;10.23;;;7.63;;
21754;SDS011;11039;50.028;19.938;2023-07-02T08:51:55;9.43;;;7.50;;
21754;SDS011;11039;50.028;19.938;2023-07-02T08:54:21;9.75;;;7.70;;
21754;SDS011;11039;50.028;19.938;2023-07-02T08:56:47;11.40;;;7.80;;
21754;SDS011;11039;50.028;19.938;2023-07-02T08:59:13;11.18;;;8.55;;
21754;SDS011;11039;50.028;19.938;2023-07-02T09:01:49;10.23;;;7.95;;
21754;SDS011;11039;50.028;19.938;2023-07-02T09:06:34;13.93;;;9.02;;
21754;SDS011;11039;50.028;19.938;2023-07-02T09:09:04;14.82;;;9.63;;
21754;SDS011;11039;50.028;19.938;2023-07-02T09:11:30;13.55;;;9.95;;
21754;SDS011;11039;50.028;19.938;2023-07-02T09:13:56;12.13;;;8.98;;
21754;SDS011;11039;50.028;19.938;2023-07-02T09:16:27;14.63;;;9.93;;
21754;SDS011;11039;50.028;19.938;2023-07-02T09:19:02;10.75;;;9.15;;
21754;SDS011;11039;50.028;19.938;2023-07-02T09:24:12;14.15;;;10.32;;
21754;SDS011;11039;50.028;19.938;2023-07-02T09:26:41;11.43;;;9.93;;
21754;SDS011;11039;50.028;19.938;2023-07-02T09:29:07;13.07;;;10.02;;
21754;SDS011;11039;50.028;19.938;2023-07-02T09:33:51;14.43;;;10.13;;
21754;SDS011;11039;50.028;19.938;2023-07-02T09:36:17;13.60;;;10.38;;
21754;SDS011;11039;50.028;19.938;2023-07-02T09:38:43;14.73;;;10.40;;
21754;SDS011;11039;50.028;19.938;2023-07-02T09:41:09;14.75;;;11.20;;
21754;SDS011;11039;50.028;19.938;2023-07-02T09:43:35;12.60;;;10.57;;
21754;SDS011;11039;50.028;19.938;2023-07-02T09:46:02;14.23;;;10.90;;
21754;SDS011;11039;50.028;19.938;2023-07-02T09:48:28;13.15;;;10.32;;
21754;SDS011;11039;50.028;19.938;2023-07-02T09:50:57;11.57;;;10.18;;
21754;SDS011;11039;50.028;19.938;2023-07-02T09:53:23;13.88;;;10.32;;
21754;SDS011;11039;50.028;19.938;2023-07-02T09:55:49;12.50;;;9.80;;
21754;SDS011;11039;50.028;19.938;2023-07-02T09:58:16;19.20;;;9.95;;
21754;SDS011;11039;50.028;19.938;2023-07-02T10:00:42;14.68;;;9.80;;
21754;SDS011;11039;50.028;19.938;2023-07-02T10:03:08;12.65;;;9.40;;
21754;SDS011;11039;50.028;19.938;2023-07-02T10:05:34;10.15;;;8.65;;
21754;SDS011;11039;50.028;19.938;2023-07-02T10:08:13;10.20;;;8.75;;
21754;SDS011;11039;50.028;19.938;2023-07-02T10:10:40;13.07;;;9.00;;
21754;SDS011;11039;50.028;19.938;2023-07-02T10:13:06;10.63;;;8.40;;
21754;SDS011;11039;50.028;19.938;2023-07-02T10:15:32;10.60;;;9.10;;
21754;SDS011;11039;50.028;19.938;2023-07-02T10:18:02;12.40;;;8.88;;
21754;SDS011;11039;50.028;19.938;2023-07-02T10:20:32;10.55;;;8.90;;
21754;SDS011;11039;50.028;19.938;2023-07-02T10:22:59;9.80;;;7.78;;
21754;SDS011;11039;50.028;19.938;2023-07-02T10:25:30;9.52;;;7.88;;
21754;SDS011;11039;50.028;19.938;2023-07-02T10:27:57;9.27;;;7.78;;
21754;SDS011;11039;50.028;19.938;2023-07-02T10:32:41;8.93;;;7.50;;
21754;SDS011;11039;50.028;19.938;2023-07-02T10:35:17;8.88;;;7.45;;
21754;SDS011;11039;50.028;19.938;2023-07-02T10:37:43;10.75;;;8.18;;
21754;SDS011;11039;50.028;19.938;2023-07-02T10:40:10;9.60;;;8.27;;
21754;SDS011;11039;50.028;19.938;2023-07-02T10:42:46;9.10;;;8.10;;
21754;SDS011;11039;50.028;19.938;2023-07-02T10:45:12;9.80;;;7.63;;
21754;SDS011;11039;50.028;19.938;2023-07-02T10:47:41;9.80;;;7.93;;
21754;SDS011;11039;50.028;19.938;2023-07-02T10:50:17;9.07;;;7.40;;
21754;SDS011;11039;50.028;19.938;2023-07-02T10:52:43;8.35;;;7.55;;
21754;SDS011;11039;50.028;19.938;2023-07-02T10:55:09;8.90;;;7.40;;
21754;SDS011;11039;50.028;19.938;2023-07-02T10:57:35;8.95;;;7.22;;
21754;SDS011;11039;50.028;19.938;2023-07-02T11:00:05;9.60;;;7.72;;
21754;SDS011;11039;50.028;19.938;2023-07-02T11:02:36;9.15;;;7.70;;
21754;SDS011;11039;50.028;19.938;2023-07-02T11:05:02;10.82;;;7.35;;
21754;SDS011;11039;50.028;19.938;2023-07-02T11:07:28;8.65;;;7.10;;
21754;SDS011;11039;50.028;19.938;2023-07-02T11:09:54;8.00;;;6.90;;
21754;SDS011;11039;50.028;19.938;2023-07-02T11:12:27;8.65;;;7.68;;
21754;SDS011;11039;50.028;19.938;2023-07-02T11:14:53;6.97;;;6.28;;
21754;SDS011;11039;50.028;19.938;2023-07-02T11:17:24;8.13;;;7.22;;
21754;SDS011;11039;50.028;19.938;2023-07-02T11:19:50;7.80;;;6.55;;
21754;SDS011;11039;50.028;19.938;2023-07-02T11:22:16;6.93;;;6.25;;
21754;SDS011;11039;50.028;19.938;2023-07-02T11:24:42;6.03;;;5.43;;
21754;SDS011;11039;50.028;19.938;2023-07-02T11:27:08;7.47;;;6.55;;
21754;SDS011;11039;50.028;19.938;2023-07-02T11:29:35;7.22;;;5.85;;
21754;SDS011;11039;50.028;19.938;2023-07-02T11:32:11;6.85;;;5.93;;
21754;SDS011;11039;50.028;19.938;2023-07-02T11:36:57;6.50;;;5.90;;
21754;SDS011;11039;50.028;19.938;2023-07-02T11:39:23;6.43;;;5.82;;
21754;SDS011;11039;50.028;19.938;2023-07-02T11:41:50;6.53;;;5.85;;
21754;SDS011;11039;50.028;19.938;2023-07-02T11:44:16;6.10;;;5.50;;
21754;SDS011;11039;50.028;19.938;2023-07-02T11:46:43;8.88;;;5.80;;
21754;SDS011;11039;50.028;19.938;2023-07-02T11:49:09;7.50;;;6.55;;
21754;SDS011;11039;50.028;19.938;2023-07-02T11:51:35;7.03;;;6.20;;
21754;SDS011;11039;50.028;19.938;2023-07-02T11:54:02;6.90;;;6.20;;
21754;SDS011;11039;50.028;19.938;2023-07-02T11:56:29;6.97;;;5.72;;
21754;SDS011;11039;50.028;19.938;2023-07-02T11:58:55;6.63;;;5.80;;
21754;SDS011;11039;50.028;19.938;2023-07-02T12:01:21;7.93;;;5.72;;
21754;SDS011;11039;50.028;19.938;2023-07-02T12:03:47;7.05;;;5.72;;
21754;SDS011;11039;50.028;19.938;2023-07-02T12:06:13;6.05;;;5.40;;
21754;SDS011;11039;50.028;19.938;2023-07-02T12:08:39;6.07;;;5.47;;
21754;SDS011;11039;50.028;19.938;2023-07-02T12:11:06;6.53;;;5.32;;
21754;SDS011;11039;50.028;19.938;2023-07-02T12:13:32;5.60;;;4.95;;
21754;SDS011;11039;50.028;19.938;2023-07-02T12:15:58;5.57;;;4.90;;
21754;SDS011;11039;50.028;19.938;2023-07-02T12:18:24;4.93;;;4.43;;
21754;SDS011;11039;50.028;19.938;2023-07-02T12:20:50;5.65;;;5.10;;
21754;SDS011;11039;50.028;19.938;2023-07-02T12:23:16;5.35;;;4.85;;
21754;SDS011;11039;50.028;19.938;2023-07-02T12:25:42;5.90;;;5.30;;
21754;SDS011;11039;50.028;19.938;2023-07-02T12:30:26;5.72;;;4.93;;
21754;SDS011;11039;50.028;19.938;2023-07-02T12:32:52;5.18;;;4.68;;
21754;SDS011;11039;50.028;19.938;2023-07-02T12:35:18;5.10;;;4.60;;
21754;SDS011;11039;50.028;19.938;2023-07-02T12:40:04;5.25;;;4.75;;
21754;SDS011;11039;50.028;19.938;2023-07-02T12:42:31;4.70;;;4.20;;
21754;SDS011;11039;50.028;19.938;2023-07-02T12:44:57;5.25;;;4.75;;
21754;SDS011;11039;50.028;19.938;2023-07-02T12:47:23;5.03;;;4.55;;
21754;SDS011;11039;50.028;19.938;2023-07-02T12:49:49;5.13;;;4.55;;
21754;SDS011;11039;50.028;19.938;2023-07-02T12:52:15;5.00;;;4.40;;
21754;SDS011;11039;50.028;19.938;2023-07-02T12:54:41;4.60;;;4.18;;
21754;SDS011;11039;50.028;19.938;2023-07-02T12:57:07;4.85;;;4.35;;
21754;SDS011;11039;50.028;19.938;2023-07-02T12:59:33;6.05;;;4.53;;
21754;SDS011;11039;50.028;19.938;2023-07-02T13:01:59;5.13;;;4.57;;
21754;SDS011;11039;50.028;19.938;2023-07-02T13:04:25;4.35;;;3.95;;
21754;SDS011;11039;50.028;19.938;2023-07-02T13:06:51;4.22;;;3.83;;
21754;SDS011;11039;50.028;19.938;2023-07-02T13:11:36;4.30;;;3.90;;
21754;SDS011;11039;50.028;19.938;2023-07-02T13:14:03;4.22;;;3.75;;
21754;SDS011;11039;50.028;19.938;2023-07-02T13:16:29;4.32;;;3.92;;
21754;SDS011;11039;50.028;19.938;2023-07-02T13:18:55;3.72;;;3.40;;
21754;SDS011;11039;50.028;19.938;2023-07-02T13:21:22;4.63;;;4.20;;
21754;SDS011;11039;50.028;19.938;2023-07-02T13:26:07;5.18;;;3.70;;
21754;SDS011;11039;50.028;19.938;2023-07-02T13:28:33;4.00;;;3.33;;
21754;SDS011;11039;50.028;19.938;2023-07-02T13:30:59;4.20;;;3.78;;
21754;SDS011;11039;50.028;19.938;2023-07-02T13:33:25;4.25;;;3.85;;
21754;SDS011;11039;50.028;19.938;2023-07-02T13:35:51;3.80;;;3.40;;
21754;SDS011;11039;50.028;19.938;2023-07-02T13:40:36;3.67;;;3.38;;
21754;SDS011;11039;50.028;19.938;2023-07-02T13:43:02;3.63;;;3.28;;
21754;SDS011;11039;50.028;19.938;2023-07-02T13:45:28;3.90;;;3.50;;
21754;SDS011;11039;50.028;19.938;2023-07-02T13:47:54;4.80;;;3.55;;
21754;SDS011;11039;50.028;19.938;2023-07-02T13:50:20;3.22;;;2.92;;
21754;SDS011;11039;50.028;19.938;2023-07-02T13:52:46;3.38;;;3.08;;
21754;SDS011;11039;50.028;19.938;2023-07-02T13:55:14;3.17;;;2.88;;
21754;SDS011;11039;50.028;19.938;2023-07-02T13:57:40;3.17;;;2.88;;
21754;SDS011;11039;50.028;19.938;2023-07-02T14:00:06;3.70;;;2.60;;
21754;SDS011;11039;50.028;19.938;2023-07-02T14:02:33;4.95;;;3.45;;
21754;SDS011;11039;50.028;19.938;2023-07-02T14:04:59;3.45;;;3.00;;
21754;SDS011;11039;50.028;19.938;2023-07-02T14:07:25;3.00;;;2.70;;
21754;SDS011;11039;50.028;19.938;2023-07-02T14:09:51;2.70;;;2.50;;
21754;SDS011;11039;50.028;19.938;2023-07-02T14:12:17;3.28;;;2.70;;
21754;SDS011;11039;50.028;19.938;2023-07-02T14:14:43;3.78;;;2.40;;
21754;SDS011;11039;50.028;19.938;2023-07-02T14:17:11;4.35;;;2.22;;
21754;SDS011;11039;50.028;19.938;2023-07-02T14:19:37;1.98;;;1.88;;
21754;SDS011;11039;50.028;19.938;2023-07-02T14:22:03;2.40;;;2.15;;
21754;SDS011;11039;50.028;19.938;2023-07-02T14:26:48;3.30;;;2.03;;
21754;SDS011;11039;50.028;19.938;2023-07-02T14:29:14;2.30;;;2.10;;
21754;SDS011;11039;50.028;19.938;2023-07-02T14:31:40;2.08;;;1.88;;
21754;SDS011;11039;50.028;19.938;2023-07-02T14:34:06;2.08;;;1.98;;
21754;SDS011;11039;50.028;19.938;2023-07-02T14:36:32;1.80;;;1.70;;
21754;SDS011;11039;50.028;19.938;2023-07-02T14:38:58;5.25;;;1.88;;
21754;SDS011;11039;50.028;19.938;2023-07-02T14:43:42;1.67;;;1.58;;
21754;SDS011;11039;50.028;19.938;2023-07-02T14:46:08;2.53;;;2.20;;
21754;SDS011;11039;50.028;19.938;2023-07-02T14:48:34;2.85;;;1.85;;
21754;SDS011;11039;50.028;19.938;2023-07-02T14:51:01;2.20;;;2.00;;
21754;SDS011;11039;50.028;19.938;2023-07-02T14:53:28;2.70;;;2.20;;
21754;SDS011;11039;50.028;19.938;2023-07-02T14:55:55;2.10;;;1.90;;
21754;SDS011;11039;50.028;19.938;2023-07-02T14:58:22;3.95;;;1.90;;
21754;SDS011;11039;50.028;19.938;2023-07-02T15:00:53;2.13;;;1.95;;